F/V Harvestor — WDC8229 — position and weather

sailwx.info

Track history (hours):
 
Tides and Currents Weather Stations Pressure Air Temp Water Temp Dewpoint Dewpoint Depression Visibility Wind Speed Wind Dir Waves Ship Positions

F/V Harvestor

Owner: F/V HARVESTOR INC., EDMONDS, WA. More information available from US FCC via Universal Licensing System and Coast Guard Vessel Documentation Center.

Last reported at 2015-Aug-03 04:33 UTC. Time now 2015-Aug-03 04:36 UTC.
Position N 47°38' W 122°23'.

Length 40 m.

Type: Fishing. MMSI: 367083650.

Date/timePositionNaut miles runAvg speedWind from/ knotsBaromVisibWave heightAir tempDewpointWater temp
2015-Aug-03 04:33N 47°38' W 122°23'0 0.1
2015-Aug-03 04:30N 47°38' W 122°23'2 1.9
2015-Aug-03 03:33N 47°38' W 122°26'0 7.6
2015-Aug-03 03:30N 47°39' W 122°26'7 7.9
2015-Aug-03 02:33N 47°46' W 122°27'0 7.6
2015-Aug-03 02:30N 47°46' W 122°27'8 8.5
2015-Aug-03 01:33N 47°54' W 122°30'310.3
2015-Aug-03 01:18N 47°56' W 122°33'910.6
2015-Aug-03 00:27N 48°04' W 122°40'1 7.6
2015-Aug-03 00:22N 48°05' W 122°40'910.5
2015-Aug-02 23:30N 48°12' W 122°48'10 9.9
2015-Aug-02 22:31N 48°22' W 122°46'8 8.5
2015-Aug-02 21:33N 48°30' W 122°43'3 7.9
2015-Aug-02 21:14N 48°32' W 122°41'1 2.2
2015-Aug-02 20:33N 48°33' W 122°41'0 0.0
2015-Aug-02 19:33N 48°33' W 122°41'0 0.0
2015-Aug-02 18:33N 48°33' W 122°41'0 0.0
2015-Aug-02 17:33N 48°33' W 122°41'0 0.0
2015-Aug-02 16:33N 48°33' W 122°41'0 0.0
2015-Aug-02 15:33N 48°33' W 122°41'0 0.0
2015-Aug-02 14:33N 48°33' W 122°41'0 0.0
2015-Aug-02 13:33N 48°33' W 122°41'0 0.0
2015-Aug-02 12:33N 48°33' W 122°41'0 0.0
2015-Aug-02 11:33N 48°33' W 122°41'0 0.0
2015-Aug-02 10:33N 48°33' W 122°41'0 0.0
2015-Aug-02 09:33N 48°33' W 122°41'0 0.0
2015-Aug-02 08:34N 48°33' W 122°41'3 2.5
2015-Aug-02 07:33N 48°31' W 122°42'1 6.3
2015-Aug-02 07:22N 48°30' W 122°42'6 6.9
2015-Aug-02 06:33N 48°25' W 122°40'8 7.2
2015-Aug-02 05:30N 48°20' W 122°31'14 6.9
2015-Aug-02 03:28N 48°06' W 122°27'7 7.4
2015-Aug-02 02:31N 48°00' W 122°21'7 7.9
2015-Aug-02 01:38N 47°53' W 122°22'1 9.4
2015-Aug-02 01:33N 47°53' W 122°22'2 8.7
2015-Aug-02 01:17N 47°50' W 122°23'6 8.2
2015-Aug-02 00:33N 47°45' W 122°26'0 6.7
2015-Aug-02 00:33N 47°45' W 122°26'7 7.3
2015-Aug-01 23:33N 47°38' W 122°24'0 7.3
2015-Aug-01 23:32N 47°38' W 122°24'1 0.5
2015-Aug-01 22:33N 47°38' W 122°23'0 0.0
2015-Aug-01 22:32N 47°38' W 122°23'0 0.0
2015-Aug-01 21:33N 47°38' W 122°23'0 0.0
2015-Aug-01 21:32N 47°38' W 122°23'0 0.0
2015-Aug-01 20:33N 47°38' W 122°23'0 0.0
2015-Aug-01 20:32N 47°38' W 122°23'0 0.0
2015-Aug-01 19:34N 47°38' W 122°23'0 0.0
2015-Aug-01 19:32N 47°38' W 122°23'0 0.0
2015-Aug-01 18:33N 47°38' W 122°23'0 0.0
2015-Aug-01 18:32N 47°38' W 122°23'0 0.0
2015-Aug-01 17:33N 47°38' W 122°23'0 0.0
2015-Aug-01 17:32N 47°38' W 122°23'0 0.0
2015-Aug-01 16:33N 47°38' W 122°23'0 0.0
2015-Aug-01 16:31N 47°38' W 122°23'0 0.0
2015-Aug-01 15:33N 47°38' W 122°23'0 0.0
2015-Aug-01 15:32N 47°38' W 122°23'0 0.0
2015-Aug-01 14:33N 47°38' W 122°23'0 0.0
2015-Aug-01 14:32N 47°38' W 122°23'0 0.0
2015-Aug-01 13:33N 47°38' W 122°23'0 0.0
2015-Aug-01 13:26N 47°38' W 122°23'0 0.0
2015-Aug-01 12:33N 47°38' W 122°23'0 0.0
2015-Aug-01 12:31N 47°38' W 122°23'0 0.0
2015-Aug-01 11:33N 47°38' W 122°23'0 0.2
2015-Aug-01 11:31N 47°38' W 122°23'0 0.0
2015-Aug-01 10:33N 47°38' W 122°23'0 0.0
2015-Aug-01 10:31N 47°38' W 122°23'0 0.0
2015-Aug-01 09:33N 47°38' W 122°23'0 0.0
2015-Aug-01 09:31N 47°38' W 122°23'0 0.0
2015-Aug-01 08:33N 47°38' W 122°23'0 0.0
2015-Aug-01 08:31N 47°38' W 122°23'0 0.0
2015-Aug-01 07:33N 47°38' W 122°23'0 0.2
2015-Aug-01 07:31N 47°38' W 122°23'0 0.0
2015-Aug-01 06:33N 47°38' W 122°23'0 0.0
2015-Aug-01 06:31N 47°38' W 122°23'0 0.0
2015-Aug-01 06:06N 47°38' W 122°23'0 0.0
2015-Aug-01 05:33N 47°38' W 122°23'0 0.0
2015-Aug-01 04:33N 47°38' W 122°23'0 0.0
2015-Aug-01 04:31N 47°38' W 122°23'0 0.0
2015-Aug-01 03:33N 47°38' W 122°23'0 0.0
2015-Aug-01 03:31N 47°38' W 122°23'0 0.0
2015-Aug-01 02:33N 47°38' W 122°23'0 0.0
2015-Aug-01 02:30N 47°38' W 122°23'0 0.0
2015-Aug-01 01:33N 47°38' W 122°23'0 0.0
2015-Aug-01 01:30N 47°38' W 122°23'0 0.0
2015-Aug-01 00:34N 47°38' W 122°23'0 0.0
2015-Aug-01 00:30N 47°38' W 122°23'0 0.0
2015-Jul-31 23:33N 47°38' W 122°23'0 0.0
2015-Jul-31 23:30N 47°38' W 122°23'0 0.0
2015-Jul-31 22:33N 47°38' W 122°23'0 0.0
2015-Jul-31 22:30N 47°38' W 122°23'0 0.0
2015-Jul-31 21:33N 47°38' W 122°23'0 0.0
2015-Jul-31 21:30N 47°38' W 122°23'0 0.0
2015-Jul-31 20:33N 47°38' W 122°23'0 0.0
2015-Jul-31 20:30N 47°38' W 122°23'0 0.0
2015-Jul-31 19:33N 47°38' W 122°23'0 0.0
2015-Jul-31 19:30N 47°38' W 122°23'0 0.0
2015-Jul-31 18:33N 47°38' W 122°23'0 0.0
2015-Jul-31 18:30N 47°38' W 122°23'0 0.0
2015-Jul-31 17:34N 47°38' W 122°23'0 0.0
2015-Jul-31 17:30N 47°38' W 122°23'0 0.0
2015-Jul-31 16:33N 47°38' W 122°23'0 0.0
2015-Jul-31 16:29N 47°38' W 122°23'0 0.0
2015-Jul-31 15:33N 47°38' W 122°23'0 0.0
2015-Jul-31 15:29N 47°38' W 122°23'0 0.0
2015-Jul-31 14:33N 47°38' W 122°23'0 0.0
2015-Jul-31 14:29N 47°38' W 122°23'0 0.0
2015-Jul-31 13:33N 47°38' W 122°23'0 0.0
2015-Jul-31 13:29N 47°38' W 122°23'0 0.0
2015-Jul-31 12:33N 47°38' W 122°23'0 0.0
2015-Jul-31 12:29N 47°38' W 122°23'0 0.0
2015-Jul-31 11:33N 47°38' W 122°23'0 0.0
2015-Jul-31 11:29N 47°38' W 122°23'0 0.0
2015-Jul-31 10:33N 47°38' W 122°23'0 0.0
2015-Jul-31 10:29N 47°38' W 122°23'0 0.0
2015-Jul-31 09:33N 47°38' W 122°23'0 0.0
2015-Jul-31 09:29N 47°38' W 122°23'0 0.0
2015-Jul-31 08:34N 47°38' W 122°23'0 0.0
2015-Jul-31 08:33N 47°38' W 122°23'0 0.0
2015-Jul-31 07:34N 47°38' W 122°23'0 0.0
2015-Jul-31 07:33N 47°38' W 122°23'0 0.0
2015-Jul-31 06:33N 47°38' W 122°23'0 0.0
2015-Jul-31 06:33N 47°38' W 122°23'0 0.0
2015-Jul-31 06:08N 47°38' W 122°23'0 0.0
2015-Jul-31 05:33N 47°38' W 122°23'0 0.0
2015-Jul-31 04:33N 47°38' W 122°23'0 0.0
2015-Jul-31 04:33N 47°38' W 122°23'0 0.0
2015-Jul-31 03:33N 47°38' W 122°23'0 0.0
2015-Jul-31 03:33N 47°38' W 122°23'0 0.0
2015-Jul-31 02:33N 47°38' W 122°23'0 0.0
2015-Jul-31 02:32N 47°38' W 122°23'0 0.0
2015-Jul-31 01:33N 47°38' W 122°23'0 0.0
2015-Jul-31 01:33N 47°38' W 122°23'0 0.0
2015-Jul-31 00:33N 47°38' W 122°23'0 0.0
2015-Jul-31 00:33N 47°38' W 122°23'0 0.0
2015-Jul-30 23:33N 47°38' W 122°23'0 0.0
2015-Jul-30 23:33N 47°38' W 122°23'0 0.0
2015-Jul-30 22:33N 47°38' W 122°23'0 0.5
2015-Jul-30 22:33N 47°38' W 122°23'0 0.0
2015-Jul-30 21:33N 47°38' W 122°23'0 0.4
2015-Jul-30 21:32N 47°38' W 122°23'0 0.0
2015-Jul-30 20:33N 47°38' W 122°23'0 0.0
2015-Jul-30 20:32N 47°38' W 122°23'0 0.0
2015-Jul-30 19:33N 47°38' W 122°23'0 0.0
2015-Jul-30 19:32N 47°38' W 122°23'0 0.0
2015-Jul-30 18:33N 47°38' W 122°23'0 0.0
2015-Jul-30 18:32N 47°38' W 122°23'0 0.0
2015-Jul-30 17:33N 47°38' W 122°23'0 0.0
2015-Jul-30 17:32N 47°38' W 122°23'0 0.0
2015-Jul-30 16:33N 47°38' W 122°23'0 0.0
2015-Jul-30 16:32N 47°38' W 122°23'0 0.0
2015-Jul-30 15:33N 47°38' W 122°23'0 0.0
2015-Jul-30 15:32N 47°38' W 122°23'0 0.0
2015-Jul-30 14:33N 47°38' W 122°23'0 0.0
2015-Jul-30 14:32N 47°38' W 122°23'0 0.0
2015-Jul-30 13:33N 47°38' W 122°23'0 0.0
2015-Jul-30 13:32N 47°38' W 122°23'0 0.0
2015-Jul-30 12:33N 47°38' W 122°23'0 0.0
2015-Jul-30 12:31N 47°38' W 122°23'0 0.0
2015-Jul-30 11:34N 47°38' W 122°23'0 0.0
2015-Jul-30 11:31N 47°38' W 122°23'0 0.0
2015-Jul-30 10:33N 47°38' W 122°23'0 0.0
2015-Jul-30 10:31N 47°38' W 122°23'0 0.0
2015-Jul-30 09:33N 47°38' W 122°23'0 0.0
2015-Jul-30 09:31N 47°38' W 122°23'0 0.0
2015-Jul-30 08:34N 47°38' W 122°23'0 0.0
2015-Jul-30 08:31N 47°38' W 122°23'1 0.6
2015-Jul-30 07:33N 47°38' W 122°24'0 8.8
2015-Jul-30 07:31N 47°38' W 122°24'7 8.0
2015-Jul-30 06:40N 47°44' W 122°28'1 8.8
2015-Jul-30 06:34N 47°45' W 122°27'1 8.6
2015-Jul-30 06:26N 47°46' W 122°27'7 8.5
2015-Jul-30 05:33N 47°53' W 122°30'6 7.1
2015-Jul-30 04:39N 47°58' W 122°36'1 6.3
2015-Jul-30 04:33N 47°59' W 122°36'7 7.0
2015-Jul-30 03:30N 48°06' W 122°40'10 6.7
2015-Jul-30 01:59N 48°14' W 122°48'4 8.4
2015-Jul-30 01:29N 48°18' W 122°47'1 8.7
2015-Jul-30 01:23N 48°19' W 122°47'7 8.0
2015-Jul-30 00:33N 48°26' W 122°44'6 6.4
2015-Jul-29 23:34N 48°32' W 122°41'2 1.7
2015-Jul-29 22:33N 48°33' W 122°41'0 0.0
2015-Jul-29 21:33N 48°33' W 122°41'0 0.0
2015-Jul-29 20:31N 48°33' W 122°41'0 0.0
2015-Jul-29 19:33N 48°33' W 122°41'0 0.0
2015-Jul-29 18:33N 48°33' W 122°41'0 0.0
2015-Jul-29 17:07N 48°33' W 122°41'0 0.0
2015-Jul-29 16:33N 48°33' W 122°41'0 0.0
2015-Jul-29 15:33N 48°33' W 122°41'0 0.2
2015-Jul-29 14:29N 48°33' W 122°41'0 0.0
2015-Jul-29 13:33N 48°33' W 122°41'0 0.0
2015-Jul-29 12:33N 48°33' W 122°41'0 0.0
2015-Jul-29 11:42N 48°33' W 122°41'0 0.0
2015-Jul-29 11:34N 48°33' W 122°41'0 0.0
2015-Jul-29 09:33N 48°33' W 122°41'0 0.0
2015-Jul-29 08:29N 48°33' W 122°41'0 0.0
2015-Jul-29 07:32N 48°33' W 122°41'0 0.0
2015-Jul-29 06:33N 48°33' W 122°41'0 0.0
2015-Jul-29 05:17N 48°33' W 122°41'0 0.0
2015-Jul-29 04:34N 48°33' W 122°41'0 0.0
2015-Jul-29 03:33N 48°33' W 122°41'0 0.0
2015-Jul-29 02:33N 48°33' W 122°41'0 0.0
2015-Jul-29 01:33N 48°33' W 122°41'0 0.1
2015-Jul-29 00:33N 48°33' W 122°41'8 7.5
2015-Jul-28 23:32N 48°26' W 122°41'9 8.8
2015-Jul-28 22:29N 48°20' W 122°31'15 7.8
2015-Jul-28 20:33N 48°05' W 122°26'8 8.3
2015-Jul-28 19:33N 47°58' W 122°20'6 8.0
2015-Jul-28 18:45N 47°52' W 122°24'2 8.2
2015-Jul-28 18:33N 47°50' W 122°24'1 8.3
2015-Jul-28 18:30N 47°50' W 122°25'8 8.5
2015-Jul-28 17:33N 47°42' W 122°26'1 8.4
2015-Jul-28 17:30N 47°41' W 122°27'4 4.5
2015-Jul-28 16:33N 47°38' W 122°23'0 0.0
2015-Jul-28 16:30N 47°38' W 122°23'0 0.0
2015-Jul-28 15:33N 47°38' W 122°23'0 0.0
2015-Jul-28 15:30N 47°38' W 122°23'0 0.0
2015-Jul-28 14:33N 47°38' W 122°23'0 0.0
2015-Jul-28 14:29N 47°38' W 122°23'0 0.0
2015-Jul-28 13:33N 47°38' W 122°23'0 0.0
2015-Jul-28 13:29N 47°38' W 122°23'0 0.0
2015-Jul-28 12:33N 47°38' W 122°23'0 0.0
2015-Jul-28 12:29N 47°38' W 122°23'0 0.0
2015-Jul-28 11:33N 47°38' W 122°23'0 0.0
2015-Jul-28 11:29N 47°38' W 122°23'0 0.0
2015-Jul-28 10:33N 47°38' W 122°23'0 0.1
2015-Jul-28 10:29N 47°38' W 122°23'0 0.0
2015-Jul-28 09:33N 47°38' W 122°23'0 0.0
2015-Jul-28 09:29N 47°38' W 122°23'0 0.0
2015-Jul-28 08:33N 47°38' W 122°23'0 0.0
2015-Jul-28 08:28N 47°38' W 122°23'0 0.0
2015-Jul-28 07:33N 47°38' W 122°23'0 0.1
2015-Jul-28 07:29N 47°38' W 122°23'6 6.1
2015-Jul-28 06:33N 47°43' W 122°25'021.6
2015-Jul-28 06:33N 47°43' W 122°25'4 8.7
2015-Jul-28 06:08N 47°47' W 122°25'5 8.8
2015-Jul-28 05:34N 47°52' W 122°23'9 8.6
2015-Jul-28 04:33N 48°01' W 122°22'2 8.5
2015-Jul-28 04:18N 48°03' W 122°23'8 9.1
2015-Jul-28 03:28N 48°08' W 122°31'9 8.2
2015-Jul-28 02:20N 48°17' W 122°30'9 7.6
2015-Jul-28 01:13N 48°25' W 122°36'5 6.5
2015-Jul-28 00:31N 48°26' W 122°42'7 7.4
2015-Jul-27 23:33N 48°33' W 122°41'0 0.0
2015-Jul-27 22:30N 48°33' W 122°41'0 0.0
2015-Jul-27 21:31N 48°33' W 122°41'0 0.0
2015-Jul-27 20:30N 48°33' W 122°41'0 0.0
2015-Jul-27 19:24N 48°33' W 122°41'0 0.0
2015-Jul-27 18:33N 48°33' W 122°41'0 0.0
2015-Jul-27 17:31N 48°33' W 122°41'0 0.0
2015-Jul-27 16:28N 48°33' W 122°41'0 0.0
2015-Jul-27 15:33N 48°33' W 122°41'0 0.0
2015-Jul-27 14:30N 48°33' W 122°41'0 0.0
2015-Jul-27 13:33N 48°33' W 122°41'0 0.0
2015-Jul-27 12:32N 48°33' W 122°41'0 0.0
2015-Jul-27 11:33N 48°33' W 122°41'0 0.0
2015-Jul-27 10:33N 48°33' W 122°41'0 0.0
2015-Jul-27 09:33N 48°33' W 122°41'0 0.0
2015-Jul-27 08:33N 48°33' W 122°41'0 0.0
2015-Jul-27 07:33N 48°33' W 122°41'0 0.0
2015-Jul-27 06:33N 48°33' W 122°41'0 0.0
2015-Jul-27 05:32N 48°33' W 122°41'0 0.0
2015-Jul-27 04:33N 48°33' W 122°41'0 0.0
2015-Jul-27 03:33N 48°33' W 122°41'3 3.7
2015-Jul-27 02:40N 48°30' W 122°42'1 7.8
2015-Jul-27 02:33N 48°30' W 122°43'8 8.4
2015-Jul-27 01:33N 48°21' W 122°45'9 8.0
2015-Jul-27 00:22N 48°12' W 122°46'210.2
2015-Jul-27 00:10N 48°10' W 122°43'9 9.2
2015-Jul-26 23:08N 48°02' W 122°37'4 9.6
2015-Jul-26 22:40N 47°58' W 122°34'110.1
2015-Jul-26 22:33N 47°57' W 122°32'4 9.0
2015-Jul-26 22:09N 47°55' W 122°28'5 8.8
2015-Jul-26 21:33N 47°50' W 122°27'0 8.3
2015-Jul-26 21:30N 47°49' W 122°27'8 8.7
2015-Jul-26 20:33N 47°41' W 122°26'0 8.3
2015-Jul-26 20:30N 47°40' W 122°27'3 3.7
2015-Jul-26 19:33N 47°38' W 122°23'0 0.0
2015-Jul-26 19:30N 47°38' W 122°23'0 0.0
2015-Jul-26 18:33N 47°38' W 122°23'0 0.1
2015-Jul-26 18:30N 47°38' W 122°23'0 0.0
2015-Jul-26 17:33N 47°38' W 122°23'0 0.0
2015-Jul-26 17:30N 47°38' W 122°23'0 0.0
2015-Jul-26 16:33N 47°38' W 122°23'0 0.0
2015-Jul-26 16:29N 47°38' W 122°23'0 0.0
2015-Jul-26 15:33N 47°38' W 122°23'0 0.0
2015-Jul-26 14:33N 47°38' W 122°23'0 0.0
2015-Jul-26 13:33N 47°38' W 122°23'0 0.0
2015-Jul-26 12:58N 47°38' W 122°23'0 0.0
2015-Jul-26 12:33N 47°38' W 122°23'0 0.0
2015-Jul-26 12:29N 47°38' W 122°23'0 0.0
2015-Jul-26 11:34N 47°38' W 122°23'0 0.0
2015-Jul-26 11:29N 47°38' W 122°23'0 0.0
2015-Jul-26 10:33N 47°38' W 122°23'0 0.0
2015-Jul-26 10:29N 47°38' W 122°23'0 0.0
2015-Jul-26 09:33N 47°38' W 122°23'0 0.0
2015-Jul-26 09:28N 47°38' W 122°23'0 0.0
2015-Jul-26 08:34N 47°38' W 122°23'0 0.0
2015-Jul-26 08:33N 47°38' W 122°23'0 0.0
2015-Jul-26 07:34N 47°38' W 122°23'0 0.0
2015-Jul-26 07:33N 47°38' W 122°23'0 0.0
2015-Jul-26 06:33N 47°38' W 122°23'0 0.0
2015-Jul-26 06:33N 47°38' W 122°23'0 0.0
2015-Jul-26 06:08N 47°38' W 122°23'0 0.0
2015-Jul-26 05:33N 47°38' W 122°23'0 0.0
2015-Jul-26 04:33N 47°38' W 122°23'0 0.0
2015-Jul-26 04:33N 47°38' W 122°23'0 0.0
2015-Jul-26 03:33N 47°38' W 122°23'0 0.0
2015-Jul-26 03:33N 47°38' W 122°23'0 0.0
2015-Jul-26 02:33N 47°38' W 122°23'0 0.0
2015-Jul-26 02:33N 47°38' W 122°23'0 0.0
2015-Jul-26 01:33N 47°38' W 122°23'0 0.0
2015-Jul-26 01:33N 47°38' W 122°23'0 0.0
2015-Jul-26 00:33N 47°38' W 122°23'0 0.0
2015-Jul-26 00:33N 47°38' W 122°23'0 0.0
2015-Jul-25 23:33N 47°38' W 122°23'0 0.0
2015-Jul-25 23:33N 47°38' W 122°23'0 0.0
2015-Jul-25 22:33N 47°38' W 122°23'0 0.0
2015-Jul-25 22:32N 47°38' W 122°23'0 0.0
2015-Jul-25 21:33N 47°38' W 122°23'0 0.0
2015-Jul-25 21:32N 47°38' W 122°23'0 0.0
2015-Jul-25 20:33N 47°38' W 122°23'0 0.0
2015-Jul-25 20:32N 47°38' W 122°23'0 0.0
2015-Jul-25 19:33N 47°38' W 122°23'0 0.0
2015-Jul-25 19:32N 47°38' W 122°23'0 0.0
2015-Jul-25 18:33N 47°38' W 122°23'0 0.0
2015-Jul-25 18:32N 47°38' W 122°23'0 0.0
2015-Jul-25 17:33N 47°38' W 122°23'0 0.0
2015-Jul-25 17:32N 47°38' W 122°23'0 0.0
2015-Jul-25 16:33N 47°38' W 122°23'0 0.0
2015-Jul-25 16:32N 47°38' W 122°23'0 0.0
2015-Jul-25 15:33N 47°38' W 122°23'0 0.0
2015-Jul-25 15:32N 47°38' W 122°23'0 0.0
2015-Jul-25 14:33N 47°38' W 122°23'0 0.0
2015-Jul-25 14:32N 47°38' W 122°23'0 0.0
2015-Jul-25 13:33N 47°38' W 122°23'0 0.0
2015-Jul-25 13:31N 47°38' W 122°23'0 0.0
2015-Jul-25 12:33N 47°38' W 122°23'0 0.0
2015-Jul-25 12:31N 47°38' W 122°23'0 0.0
2015-Jul-25 11:33N 47°38' W 122°23'0 0.0
2015-Jul-25 11:31N 47°38' W 122°23'0 0.0
2015-Jul-25 10:33N 47°38' W 122°23'0 0.0
2015-Jul-25 10:31N 47°38' W 122°23'0 0.0
2015-Jul-25 09:33N 47°38' W 122°23'0 0.0
2015-Jul-25 09:31N 47°38' W 122°23'0 0.0
2015-Jul-25 08:33N 47°38' W 122°23'0 0.0
2015-Jul-25 08:31N 47°38' W 122°23'0 0.0
2015-Jul-25 07:33N 47°38' W 122°23'0 0.0
2015-Jul-25 07:31N 47°38' W 122°23'0 0.0
2015-Jul-25 06:33N 47°38' W 122°23'0 0.0
2015-Jul-25 06:31N 47°38' W 122°23'0 0.0
2015-Jul-25 06:06N 47°38' W 122°23'0 0.0
2015-Jul-25 05:33N 47°38' W 122°23'0 0.0
2015-Jul-25 04:33N 47°38' W 122°23'0 0.0
2015-Jul-25 04:30N 47°38' W 122°23'0 0.0
2015-Jul-25 03:33N 47°38' W 122°23'0 0.0
2015-Jul-25 03:30N 47°38' W 122°23'0 0.0
2015-Jul-25 02:33N 47°38' W 122°23'0 0.0
2015-Jul-25 02:30N 47°38' W 122°23'0 0.0
2015-Jul-25 01:33N 47°38' W 122°23'0 0.0
2015-Jul-25 01:30N 47°38' W 122°23'0 0.0
2015-Jul-25 00:33N 47°38' W 122°23'0 0.0
2015-Jul-25 00:30N 47°38' W 122°23'0 0.0
2015-Jul-24 23:33N 47°38' W 122°23'0 0.0
2015-Jul-24 23:30N 47°38' W 122°23'0 0.0
2015-Jul-24 22:33N 47°38' W 122°23'0 0.0
2015-Jul-24 22:30N 47°38' W 122°23'0 0.0
2015-Jul-24 21:33N 47°38' W 122°23'0 0.0
2015-Jul-24 21:30N 47°38' W 122°23'0 0.0
2015-Jul-24 20:33N 47°38' W 122°23'0 0.0
2015-Jul-24 20:29N 47°38' W 122°23'0 0.0
2015-Jul-24 19:33N 47°38' W 122°23'0 0.0
2015-Jul-24 19:29N 47°38' W 122°23'0 0.0
2015-Jul-24 18:33N 47°38' W 122°23'0 0.0
2015-Jul-24 18:29N 47°38' W 122°23'0 0.0
2015-Jul-24 17:33N 47°38' W 122°23'0 0.0
2015-Jul-24 17:29N 47°38' W 122°23'0 0.0
2015-Jul-24 16:33N 47°38' W 122°23'0 0.0
2015-Jul-24 16:29N 47°38' W 122°23'0 0.0
2015-Jul-24 15:34N 47°38' W 122°23'0 0.0
2015-Jul-24 15:29N 47°38' W 122°23'0 0.0
2015-Jul-24 14:33N 47°38' W 122°23'0 0.0
2015-Jul-24 14:29N 47°38' W 122°23'0 0.0
2015-Jul-24 13:33N 47°38' W 122°23'0 0.0
2015-Jul-24 13:29N 47°38' W 122°23'0 0.0
2015-Jul-24 12:34N 47°38' W 122°23'0 0.0
2015-Jul-24 12:33N 47°38' W 122°23'0 0.0
2015-Jul-24 11:34N 47°38' W 122°23'0 0.0
2015-Jul-24 11:34N 47°38' W 122°23'0 0.0
2015-Jul-24 10:34N 47°38' W 122°23'0 0.0
2015-Jul-24 10:33N 47°38' W 122°23'0 0.0
2015-Jul-24 09:33N 47°38' W 122°23'0 0.0
2015-Jul-24 09:33N 47°38' W 122°23'0 0.0
2015-Jul-24 08:33N 47°38' W 122°23'0 0.0
2015-Jul-24 08:33N 47°38' W 122°23'0 0.0
2015-Jul-24 07:33N 47°38' W 122°23'0 0.0
2015-Jul-24 07:33N 47°38' W 122°23'0 0.0
2015-Jul-24 06:33N 47°38' W 122°23'0 0.0
2015-Jul-24 06:33N 47°38' W 122°23'0 0.0
2015-Jul-24 06:03N 47°38' W 122°23'0 0.0
2015-Jul-24 05:33N 47°38' W 122°23'  
Track history (hours):
 
Tides and Currents Weather Stations Pressure Air Temp Water Temp Dewpoint Dewpoint Depression Visibility Wind Speed Wind Dir Waves Ship Positions

F/V Harvestor

Owner: F/V HARVESTOR INC., EDMONDS, WA. More information available from US FCC via Universal Licensing System and Coast Guard Vessel Documentation Center.

Last reported at 2015-Aug-03 04:33 UTC. Time now 2015-Aug-03 04:36 UTC.
Position N 47°38' W 122°23'.

Length 40 m.

Type: Fishing. MMSI: 367083650.

Date/timePositionNaut miles runAvg speedWind from/ knotsBaromVisibWave heightAir tempDewpointWater temp
2015-Aug-03 04:33N 47°38' W 122°23'0 0.1
2015-Aug-03 04:30N 47°38' W 122°23'2 1.9
2015-Aug-03 03:33N 47°38' W 122°26'0 7.6
2015-Aug-03 03:30N 47°39' W 122°26'7 7.9
2015-Aug-03 02:33N 47°46' W 122°27'0 7.6
2015-Aug-03 02:30N 47°46' W 122°27'8 8.5
2015-Aug-03 01:33N 47°54' W 122°30'310.3
2015-Aug-03 01:18N 47°56' W 122°33'910.6
2015-Aug-03 00:27N 48°04' W 122°40'1 7.6
2015-Aug-03 00:22N 48°05' W 122°40'910.5
2015-Aug-02 23:30N 48°12' W 122°48'10 9.9
2015-Aug-02 22:31N 48°22' W 122°46'8 8.5
2015-Aug-02 21:33N 48°30' W 122°43'3 7.9
2015-Aug-02 21:14N 48°32' W 122°41'1 2.2
2015-Aug-02 20:33N 48°33' W 122°41'0 0.0
2015-Aug-02 19:33N 48°33' W 122°41'0 0.0
2015-Aug-02 18:33N 48°33' W 122°41'0 0.0
2015-Aug-02 17:33N 48°33' W 122°41'0 0.0
2015-Aug-02 16:33N 48°33' W 122°41'0 0.0
2015-Aug-02 15:33N 48°33' W 122°41'0 0.0
2015-Aug-02 14:33N 48°33' W 122°41'0 0.0
2015-Aug-02 13:33N 48°33' W 122°41'0 0.0
2015-Aug-02 12:33N 48°33' W 122°41'0 0.0
2015-Aug-02 11:33N 48°33' W 122°41'0 0.0
2015-Aug-02 10:33N 48°33' W 122°41'0 0.0
2015-Aug-02 09:33N 48°33' W 122°41'0 0.0
2015-Aug-02 08:34N 48°33' W 122°41'3 2.5
2015-Aug-02 07:33N 48°31' W 122°42'1 6.3
2015-Aug-02 07:22N 48°30' W 122°42'6 6.9
2015-Aug-02 06:33N 48°25' W 122°40'8 7.2
2015-Aug-02 05:30N 48°20' W 122°31'14 6.9
2015-Aug-02 03:28N 48°06' W 122°27'7 7.4
2015-Aug-02 02:31N 48°00' W 122°21'7 7.9
2015-Aug-02 01:38N 47°53' W 122°22'1 9.4
2015-Aug-02 01:33N 47°53' W 122°22'2 8.7
2015-Aug-02 01:17N 47°50' W 122°23'6 8.2
2015-Aug-02 00:33N 47°45' W 122°26'0 6.7
2015-Aug-02 00:33N 47°45' W 122°26'7 7.3
2015-Aug-01 23:33N 47°38' W 122°24'0 7.3
2015-Aug-01 23:32N 47°38' W 122°24'1 0.5
2015-Aug-01 22:33N 47°38' W 122°23'0 0.0
2015-Aug-01 22:32N 47°38' W 122°23'0 0.0
2015-Aug-01 21:33N 47°38' W 122°23'0 0.0
2015-Aug-01 21:32N 47°38' W 122°23'0 0.0
2015-Aug-01 20:33N 47°38' W 122°23'0 0.0
2015-Aug-01 20:32N 47°38' W 122°23'0 0.0
2015-Aug-01 19:34N 47°38' W 122°23'0 0.0
2015-Aug-01 19:32N 47°38' W 122°23'0 0.0
2015-Aug-01 18:33N 47°38' W 122°23'0 0.0
2015-Aug-01 18:32N 47°38' W 122°23'0 0.0
2015-Aug-01 17:33N 47°38' W 122°23'0 0.0
2015-Aug-01 17:32N 47°38' W 122°23'0 0.0
2015-Aug-01 16:33N 47°38' W 122°23'0 0.0
2015-Aug-01 16:31N 47°38' W 122°23'0 0.0
2015-Aug-01 15:33N 47°38' W 122°23'0 0.0
2015-Aug-01 15:32N 47°38' W 122°23'0 0.0
2015-Aug-01 14:33N 47°38' W 122°23'0 0.0
2015-Aug-01 14:32N 47°38' W 122°23'0 0.0
2015-Aug-01 13:33N 47°38' W 122°23'0 0.0
2015-Aug-01 13:26N 47°38' W 122°23'0 0.0
2015-Aug-01 12:33N 47°38' W 122°23'0 0.0
2015-Aug-01 12:31N 47°38' W 122°23'0 0.0
2015-Aug-01 11:33N 47°38' W 122°23'0 0.2
2015-Aug-01 11:31N 47°38' W 122°23'0 0.0
2015-Aug-01 10:33N 47°38' W 122°23'0 0.0
2015-Aug-01 10:31N 47°38' W 122°23'0 0.0
2015-Aug-01 09:33N 47°38' W 122°23'0 0.0
2015-Aug-01 09:31N 47°38' W 122°23'0 0.0
2015-Aug-01 08:33N 47°38' W 122°23'0 0.0
2015-Aug-01 08:31N 47°38' W 122°23'0 0.0
2015-Aug-01 07:33N 47°38' W 122°23'0 0.2
2015-Aug-01 07:31N 47°38' W 122°23'0 0.0
2015-Aug-01 06:33N 47°38' W 122°23'0 0.0
2015-Aug-01 06:31N 47°38' W 122°23'0 0.0
2015-Aug-01 06:06N 47°38' W 122°23'0 0.0
2015-Aug-01 05:33N 47°38' W 122°23'0 0.0
2015-Aug-01 04:33N 47°38' W 122°23'0 0.0
2015-Aug-01 04:31N 47°38' W 122°23'0 0.0
2015-Aug-01 03:33N 47°38' W 122°23'0 0.0
2015-Aug-01 03:31N 47°38' W 122°23'0 0.0
2015-Aug-01 02:33N 47°38' W 122°23'0 0.0
2015-Aug-01 02:30N 47°38' W 122°23'0 0.0
2015-Aug-01 01:33N 47°38' W 122°23'0 0.0
2015-Aug-01 01:30N 47°38' W 122°23'0 0.0
2015-Aug-01 00:34N 47°38' W 122°23'0 0.0
2015-Aug-01 00:30N 47°38' W 122°23'0 0.0
2015-Jul-31 23:33N 47°38' W 122°23'0 0.0
2015-Jul-31 23:30N 47°38' W 122°23'0 0.0
2015-Jul-31 22:33N 47°38' W 122°23'0 0.0
2015-Jul-31 22:30N 47°38' W 122°23'0 0.0
2015-Jul-31 21:33N 47°38' W 122°23'0 0.0
2015-Jul-31 21:30N 47°38' W 122°23'0 0.0
2015-Jul-31 20:33N 47°38' W 122°23'0 0.0
2015-Jul-31 20:30N 47°38' W 122°23'0 0.0
2015-Jul-31 19:33N 47°38' W 122°23'0 0.0
2015-Jul-31 19:30N 47°38' W 122°23'0 0.0
2015-Jul-31 18:33N 47°38' W 122°23'0 0.0
2015-Jul-31 18:30N 47°38' W 122°23'0 0.0
2015-Jul-31 17:34N 47°38' W 122°23'0 0.0
2015-Jul-31 17:30N 47°38' W 122°23'0 0.0
2015-Jul-31 16:33N 47°38' W 122°23'0 0.0
2015-Jul-31 16:29N 47°38' W 122°23'0 0.0
2015-Jul-31 15:33N 47°38' W 122°23'0 0.0
2015-Jul-31 15:29N 47°38' W 122°23'0 0.0
2015-Jul-31 14:33N 47°38' W 122°23'0 0.0
2015-Jul-31 14:29N 47°38' W 122°23'0 0.0
2015-Jul-31 13:33N 47°38' W 122°23'0 0.0
2015-Jul-31 13:29N 47°38' W 122°23'0 0.0
2015-Jul-31 12:33N 47°38' W 122°23'0 0.0
2015-Jul-31 12:29N 47°38' W 122°23'0 0.0
2015-Jul-31 11:33N 47°38' W 122°23'0 0.0
2015-Jul-31 11:29N 47°38' W 122°23'0 0.0
2015-Jul-31 10:33N 47°38' W 122°23'0 0.0
2015-Jul-31 10:29N 47°38' W 122°23'0 0.0
2015-Jul-31 09:33N 47°38' W 122°23'0 0.0
2015-Jul-31 09:29N 47°38' W 122°23'0 0.0
2015-Jul-31 08:34N 47°38' W 122°23'0 0.0
2015-Jul-31 08:33N 47°38' W 122°23'0 0.0
2015-Jul-31 07:34N 47°38' W 122°23'0 0.0
2015-Jul-31 07:33N 47°38' W 122°23'0 0.0
2015-Jul-31 06:33N 47°38' W 122°23'0 0.0
2015-Jul-31 06:33N 47°38' W 122°23'0 0.0
2015-Jul-31 06:08N 47°38' W 122°23'0 0.0
2015-Jul-31 05:33N 47°38' W 122°23'0 0.0
2015-Jul-31 04:33N 47°38' W 122°23'0 0.0
2015-Jul-31 04:33N 47°38' W 122°23'0 0.0
2015-Jul-31 03:33N 47°38' W 122°23'0 0.0
2015-Jul-31 03:33N 47°38' W 122°23'0 0.0
2015-Jul-31 02:33N 47°38' W 122°23'0 0.0
2015-Jul-31 02:32N 47°38' W 122°23'0 0.0
2015-Jul-31 01:33N 47°38' W 122°23'0 0.0
2015-Jul-31 01:33N 47°38' W 122°23'0 0.0
2015-Jul-31 00:33N 47°38' W 122°23'0 0.0
2015-Jul-31 00:33N 47°38' W 122°23'0 0.0
2015-Jul-30 23:33N 47°38' W 122°23'0 0.0
2015-Jul-30 23:33N 47°38' W 122°23'0 0.0
2015-Jul-30 22:33N 47°38' W 122°23'0 0.5
2015-Jul-30 22:33N 47°38' W 122°23'0 0.0
2015-Jul-30 21:33N 47°38' W 122°23'0 0.4
2015-Jul-30 21:32N 47°38' W 122°23'0 0.0
2015-Jul-30 20:33N 47°38' W 122°23'0 0.0
2015-Jul-30 20:32N 47°38' W 122°23'0 0.0
2015-Jul-30 19:33N 47°38' W 122°23'0 0.0
2015-Jul-30 19:32N 47°38' W 122°23'0 0.0
2015-Jul-30 18:33N 47°38' W 122°23'0 0.0
2015-Jul-30 18:32N 47°38' W 122°23'0 0.0
2015-Jul-30 17:33N 47°38' W 122°23'0 0.0
2015-Jul-30 17:32N 47°38' W 122°23'0 0.0
2015-Jul-30 16:33N 47°38' W 122°23'0 0.0
2015-Jul-30 16:32N 47°38' W 122°23'0 0.0
2015-Jul-30 15:33N 47°38' W 122°23'0 0.0
2015-Jul-30 15:32N 47°38' W 122°23'0 0.0
2015-Jul-30 14:33N 47°38' W 122°23'0 0.0
2015-Jul-30 14:32N 47°38' W 122°23'0 0.0
2015-Jul-30 13:33N 47°38' W 122°23'0 0.0
2015-Jul-30 13:32N 47°38' W 122°23'0 0.0
2015-Jul-30 12:33N 47°38' W 122°23'0 0.0
2015-Jul-30 12:31N 47°38' W 122°23'0 0.0
2015-Jul-30 11:34N 47°38' W 122°23'0 0.0
2015-Jul-30 11:31N 47°38' W 122°23'0 0.0
2015-Jul-30 10:33N 47°38' W 122°23'0 0.0
2015-Jul-30 10:31N 47°38' W 122°23'0 0.0
2015-Jul-30 09:33N 47°38' W 122°23'0 0.0
2015-Jul-30 09:31N 47°38' W 122°23'0 0.0
2015-Jul-30 08:34N 47°38' W 122°23'0 0.0
2015-Jul-30 08:31N 47°38' W 122°23'1 0.6
2015-Jul-30 07:33N 47°38' W 122°24'0 8.8
2015-Jul-30 07:31N 47°38' W 122°24'7 8.0
2015-Jul-30 06:40N 47°44' W 122°28'1 8.8
2015-Jul-30 06:34N 47°45' W 122°27'1 8.6
2015-Jul-30 06:26N 47°46' W 122°27'7 8.5
2015-Jul-30 05:33N 47°53' W 122°30'6 7.1
2015-Jul-30 04:39N 47°58' W 122°36'1 6.3
2015-Jul-30 04:33N 47°59' W 122°36'7 7.0
2015-Jul-30 03:30N 48°06' W 122°40'10 6.7
2015-Jul-30 01:59N 48°14' W 122°48'4 8.4
2015-Jul-30 01:29N 48°18' W 122°47'1 8.7
2015-Jul-30 01:23N 48°19' W 122°47'7 8.0
2015-Jul-30 00:33N 48°26' W 122°44'6 6.4
2015-Jul-29 23:34N 48°32' W 122°41'2 1.7
2015-Jul-29 22:33N 48°33' W 122°41'0 0.0
2015-Jul-29 21:33N 48°33' W 122°41'0 0.0
2015-Jul-29 20:31N 48°33' W 122°41'0 0.0
2015-Jul-29 19:33N 48°33' W 122°41'0 0.0
2015-Jul-29 18:33N 48°33' W 122°41'0 0.0
2015-Jul-29 17:07N 48°33' W 122°41'0 0.0
2015-Jul-29 16:33N 48°33' W 122°41'0 0.0
2015-Jul-29 15:33N 48°33' W 122°41'0 0.2
2015-Jul-29 14:29N 48°33' W 122°41'0 0.0
2015-Jul-29 13:33N 48°33' W 122°41'0 0.0
2015-Jul-29 12:33N 48°33' W 122°41'0 0.0
2015-Jul-29 11:42N 48°33' W 122°41'0 0.0
2015-Jul-29 11:34N 48°33' W 122°41'0 0.0
2015-Jul-29 09:33N 48°33' W 122°41'0 0.0
2015-Jul-29 08:29N 48°33' W 122°41'0 0.0
2015-Jul-29 07:32N 48°33' W 122°41'0 0.0
2015-Jul-29 06:33N 48°33' W 122°41'0 0.0
2015-Jul-29 05:17N 48°33' W 122°41'0 0.0
2015-Jul-29 04:34N 48°33' W 122°41'0 0.0
2015-Jul-29 03:33N 48°33' W 122°41'0 0.0
2015-Jul-29 02:33N 48°33' W 122°41'0 0.0
2015-Jul-29 01:33N 48°33' W 122°41'0 0.1
2015-Jul-29 00:33N 48°33' W 122°41'8 7.5
2015-Jul-28 23:32N 48°26' W 122°41'9 8.8
2015-Jul-28 22:29N 48°20' W 122°31'15 7.8
2015-Jul-28 20:33N 48°05' W 122°26'8 8.3
2015-Jul-28 19:33N 47°58' W 122°20'6 8.0
2015-Jul-28 18:45N 47°52' W 122°24'2 8.2
2015-Jul-28 18:33N 47°50' W 122°24'1 8.3
2015-Jul-28 18:30N 47°50' W 122°25'8 8.5
2015-Jul-28 17:33N 47°42' W 122°26'1 8.4
2015-Jul-28 17:30N 47°41' W 122°27'4 4.5
2015-Jul-28 16:33N 47°38' W 122°23'0 0.0
2015-Jul-28 16:30N 47°38' W 122°23'0 0.0
2015-Jul-28 15:33N 47°38' W 122°23'0 0.0
2015-Jul-28 15:30N 47°38' W 122°23'0 0.0
2015-Jul-28 14:33N 47°38' W 122°23'0 0.0
2015-Jul-28 14:29N 47°38' W 122°23'0 0.0
2015-Jul-28 13:33N 47°38' W 122°23'0 0.0
2015-Jul-28 13:29N 47°38' W 122°23'0 0.0
2015-Jul-28 12:33N 47°38' W 122°23'0 0.0
2015-Jul-28 12:29N 47°38' W 122°23'0 0.0
2015-Jul-28 11:33N 47°38' W 122°23'0 0.0
2015-Jul-28 11:29N 47°38' W 122°23'0 0.0
2015-Jul-28 10:33N 47°38' W 122°23'0 0.1
2015-Jul-28 10:29N 47°38' W 122°23'0 0.0
2015-Jul-28 09:33N 47°38' W 122°23'0 0.0
2015-Jul-28 09:29N 47°38' W 122°23'0 0.0
2015-Jul-28 08:33N 47°38' W 122°23'0 0.0
2015-Jul-28 08:28N 47°38' W 122°23'0 0.0
2015-Jul-28 07:33N 47°38' W 122°23'0 0.1
2015-Jul-28 07:29N 47°38' W 122°23'6 6.1
2015-Jul-28 06:33N 47°43' W 122°25'021.6
2015-Jul-28 06:33N 47°43' W 122°25'4 8.7
2015-Jul-28 06:08N 47°47' W 122°25'5 8.8
2015-Jul-28 05:34N 47°52' W 122°23'9 8.6
2015-Jul-28 04:33N 48°01' W 122°22'2 8.5
2015-Jul-28 04:18N 48°03' W 122°23'8 9.1
2015-Jul-28 03:28N 48°08' W 122°31'9 8.2
2015-Jul-28 02:20N 48°17' W 122°30'9 7.6
2015-Jul-28 01:13N 48°25' W 122°36'5 6.5
2015-Jul-28 00:31N 48°26' W 122°42'7 7.4
2015-Jul-27 23:33N 48°33' W 122°41'0 0.0
2015-Jul-27 22:30N 48°33' W 122°41'0 0.0
2015-Jul-27 21:31N 48°33' W 122°41'0 0.0
2015-Jul-27 20:30N 48°33' W 122°41'0 0.0
2015-Jul-27 19:24N 48°33' W 122°41'0 0.0
2015-Jul-27 18:33N 48°33' W 122°41'0 0.0
2015-Jul-27 17:31N 48°33' W 122°41'0 0.0
2015-Jul-27 16:28N 48°33' W 122°41'0 0.0
2015-Jul-27 15:33N 48°33' W 122°41'0 0.0
2015-Jul-27 14:30N 48°33' W 122°41'0 0.0
2015-Jul-27 13:33N 48°33' W 122°41'0 0.0
2015-Jul-27 12:32N 48°33' W 122°41'0 0.0
2015-Jul-27 11:33N 48°33' W 122°41'0 0.0
2015-Jul-27 10:33N 48°33' W 122°41'0 0.0
2015-Jul-27 09:33N 48°33' W 122°41'0 0.0
2015-Jul-27 08:33N 48°33' W 122°41'0 0.0
2015-Jul-27 07:33N 48°33' W 122°41'0 0.0
2015-Jul-27 06:33N 48°33' W 122°41'0 0.0
2015-Jul-27 05:32N 48°33' W 122°41'0 0.0
2015-Jul-27 04:33N 48°33' W 122°41'0 0.0
2015-Jul-27 03:33N 48°33' W 122°41'3 3.7
2015-Jul-27 02:40N 48°30' W 122°42'1 7.8
2015-Jul-27 02:33N 48°30' W 122°43'8 8.4
2015-Jul-27 01:33N 48°21' W 122°45'9 8.0
2015-Jul-27 00:22N 48°12' W 122°46'210.2
2015-Jul-27 00:10N 48°10' W 122°43'9 9.2
2015-Jul-26 23:08N 48°02' W 122°37'4 9.6
2015-Jul-26 22:40N 47°58' W 122°34'110.1
2015-Jul-26 22:33N 47°57' W 122°32'4 9.0
2015-Jul-26 22:09N 47°55' W 122°28'5 8.8
2015-Jul-26 21:33N 47°50' W 122°27'0 8.3
2015-Jul-26 21:30N 47°49' W 122°27'8 8.7
2015-Jul-26 20:33N 47°41' W 122°26'0 8.3
2015-Jul-26 20:30N 47°40' W 122°27'3 3.7
2015-Jul-26 19:33N 47°38' W 122°23'0 0.0
2015-Jul-26 19:30N 47°38' W 122°23'0 0.0
2015-Jul-26 18:33N 47°38' W 122°23'0 0.1
2015-Jul-26 18:30N 47°38' W 122°23'0 0.0
2015-Jul-26 17:33N 47°38' W 122°23'0 0.0
2015-Jul-26 17:30N 47°38' W 122°23'0 0.0
2015-Jul-26 16:33N 47°38' W 122°23'0 0.0
2015-Jul-26 16:29N 47°38' W 122°23'0 0.0
2015-Jul-26 15:33N 47°38' W 122°23'0 0.0
2015-Jul-26 14:33N 47°38' W 122°23'0 0.0
2015-Jul-26 13:33N 47°38' W 122°23'0 0.0
2015-Jul-26 12:58N 47°38' W 122°23'0 0.0
2015-Jul-26 12:33N 47°38' W 122°23'0 0.0
2015-Jul-26 12:29N 47°38' W 122°23'0 0.0
2015-Jul-26 11:34N 47°38' W 122°23'0 0.0
2015-Jul-26 11:29N 47°38' W 122°23'0 0.0
2015-Jul-26 10:33N 47°38' W 122°23'0 0.0
2015-Jul-26 10:29N 47°38' W 122°23'0 0.0
2015-Jul-26 09:33N 47°38' W 122°23'0 0.0
2015-Jul-26 09:28N 47°38' W 122°23'0 0.0
2015-Jul-26 08:34N 47°38' W 122°23'0 0.0
2015-Jul-26 08:33N 47°38' W 122°23'0 0.0
2015-Jul-26 07:34N 47°38' W 122°23'0 0.0
2015-Jul-26 07:33N 47°38' W 122°23'0 0.0
2015-Jul-26 06:33N 47°38' W 122°23'0 0.0
2015-Jul-26 06:33N 47°38' W 122°23'0 0.0
2015-Jul-26 06:08N 47°38' W 122°23'0 0.0
2015-Jul-26 05:33N 47°38' W 122°23'0 0.0
2015-Jul-26 04:33N 47°38' W 122°23'0 0.0
2015-Jul-26 04:33N 47°38' W 122°23'0 0.0
2015-Jul-26 03:33N 47°38' W 122°23'0 0.0
2015-Jul-26 03:33N 47°38' W 122°23'0 0.0
2015-Jul-26 02:33N 47°38' W 122°23'0 0.0
2015-Jul-26 02:33N 47°38' W 122°23'0 0.0
2015-Jul-26 01:33N 47°38' W 122°23'0 0.0
2015-Jul-26 01:33N 47°38' W 122°23'0 0.0
2015-Jul-26 00:33N 47°38' W 122°23'0 0.0
2015-Jul-26 00:33N 47°38' W 122°23'0 0.0
2015-Jul-25 23:33N 47°38' W 122°23'0 0.0
2015-Jul-25 23:33N 47°38' W 122°23'0 0.0
2015-Jul-25 22:33N 47°38' W 122°23'0 0.0
2015-Jul-25 22:32N 47°38' W 122°23'0 0.0
2015-Jul-25 21:33N 47°38' W 122°23'0 0.0
2015-Jul-25 21:32N 47°38' W 122°23'0 0.0
2015-Jul-25 20:33N 47°38' W 122°23'0 0.0
2015-Jul-25 20:32N 47°38' W 122°23'0 0.0
2015-Jul-25 19:33N 47°38' W 122°23'0 0.0
2015-Jul-25 19:32N 47°38' W 122°23'0 0.0
2015-Jul-25 18:33N 47°38' W 122°23'0 0.0
2015-Jul-25 18:32N 47°38' W 122°23'0 0.0
2015-Jul-25 17:33N 47°38' W 122°23'0 0.0
2015-Jul-25 17:32N 47°38' W 122°23'0 0.0
2015-Jul-25 16:33N 47°38' W 122°23'0 0.0
2015-Jul-25 16:32N 47°38' W 122°23'0 0.0
2015-Jul-25 15:33N 47°38' W 122°23'0 0.0
2015-Jul-25 15:32N 47°38' W 122°23'0 0.0
2015-Jul-25 14:33N 47°38' W 122°23'0 0.0
2015-Jul-25 14:32N 47°38' W 122°23'0 0.0
2015-Jul-25 13:33N 47°38' W 122°23'0 0.0
2015-Jul-25 13:31N 47°38' W 122°23'0 0.0
2015-Jul-25 12:33N 47°38' W 122°23'0 0.0
2015-Jul-25 12:31N 47°38' W 122°23'0 0.0
2015-Jul-25 11:33N 47°38' W 122°23'0 0.0
2015-Jul-25 11:31N 47°38' W 122°23'0 0.0
2015-Jul-25 10:33N 47°38' W 122°23'0 0.0
2015-Jul-25 10:31N 47°38' W 122°23'0 0.0
2015-Jul-25 09:33N 47°38' W 122°23'0 0.0
2015-Jul-25 09:31N 47°38' W 122°23'0 0.0
2015-Jul-25 08:33N 47°38' W 122°23'0 0.0
2015-Jul-25 08:31N 47°38' W 122°23'0 0.0
2015-Jul-25 07:33N 47°38' W 122°23'0 0.0
2015-Jul-25 07:31N 47°38' W 122°23'0 0.0
2015-Jul-25 06:33N 47°38' W 122°23'0 0.0
2015-Jul-25 06:31N 47°38' W 122°23'0 0.0
2015-Jul-25 06:06N 47°38' W 122°23'0 0.0
2015-Jul-25 05:33N 47°38' W 122°23'0 0.0
2015-Jul-25 04:33N 47°38' W 122°23'0 0.0
2015-Jul-25 04:30N 47°38' W 122°23'0 0.0
2015-Jul-25 03:33N 47°38' W 122°23'0 0.0
2015-Jul-25 03:30N 47°38' W 122°23'0 0.0
2015-Jul-25 02:33N 47°38' W 122°23'0 0.0
2015-Jul-25 02:30N 47°38' W 122°23'0 0.0
2015-Jul-25 01:33N 47°38' W 122°23'0 0.0
2015-Jul-25 01:30N 47°38' W 122°23'0 0.0
2015-Jul-25 00:33N 47°38' W 122°23'0 0.0
2015-Jul-25 00:30N 47°38' W 122°23'0 0.0
2015-Jul-24 23:33N 47°38' W 122°23'0 0.0
2015-Jul-24 23:30N 47°38' W 122°23'0 0.0
2015-Jul-24 22:33N 47°38' W 122°23'0 0.0
2015-Jul-24 22:30N 47°38' W 122°23'0 0.0
2015-Jul-24 21:33N 47°38' W 122°23'0 0.0
2015-Jul-24 21:30N 47°38' W 122°23'0 0.0
2015-Jul-24 20:33N 47°38' W 122°23'0 0.0
2015-Jul-24 20:29N 47°38' W 122°23'0 0.0
2015-Jul-24 19:33N 47°38' W 122°23'0 0.0
2015-Jul-24 19:29N 47°38' W 122°23'0 0.0
2015-Jul-24 18:33N 47°38' W 122°23'0 0.0
2015-Jul-24 18:29N 47°38' W 122°23'0 0.0
2015-Jul-24 17:33N 47°38' W 122°23'0 0.0
2015-Jul-24 17:29N 47°38' W 122°23'0 0.0
2015-Jul-24 16:33N 47°38' W 122°23'0 0.0
2015-Jul-24 16:29N 47°38' W 122°23'0 0.0
2015-Jul-24 15:34N 47°38' W 122°23'0 0.0
2015-Jul-24 15:29N 47°38' W 122°23'0 0.0
2015-Jul-24 14:33N 47°38' W 122°23'0 0.0
2015-Jul-24 14:29N 47°38' W 122°23'0 0.0
2015-Jul-24 13:33N 47°38' W 122°23'0 0.0
2015-Jul-24 13:29N 47°38' W 122°23'0 0.0
2015-Jul-24 12:34N 47°38' W 122°23'0 0.0
2015-Jul-24 12:33N 47°38' W 122°23'0 0.0
2015-Jul-24 11:34N 47°38' W 122°23'0 0.0
2015-Jul-24 11:34N 47°38' W 122°23'0 0.0
2015-Jul-24 10:34N 47°38' W 122°23'0 0.0
2015-Jul-24 10:33N 47°38' W 122°23'0 0.0
2015-Jul-24 09:33N 47°38' W 122°23'0 0.0
2015-Jul-24 09:33N 47°38' W 122°23'0 0.0
2015-Jul-24 08:33N 47°38' W 122°23'0 0.0
2015-Jul-24 08:33N 47°38' W 122°23'0 0.0
2015-Jul-24 07:33N 47°38' W 122°23'0 0.0
2015-Jul-24 07:33N 47°38' W 122°23'0 0.0
2015-Jul-24 06:33N 47°38' W 122°23'0 0.0
2015-Jul-24 06:33N 47°38' W 122°23'0 0.0
2015-Jul-24 06:03N 47°38' W 122°23'0 0.0
2015-Jul-24 05:33N 47°38' W 122°23'  

Dump ship's entire track history